createdAt,value
2022-08-04T00:00:07.742Z,1.00
2022-08-04T00:02:40.322Z,1.10
2022-08-04T00:05:07.291Z,0.90
2022-08-04T00:07:44.066Z,0.88
2022-08-04T00:10:11.385Z,0.90
2022-08-04T00:12:42.475Z,1.00
2022-08-04T00:15:14.917Z,1.05
2022-08-04T00:17:59.734Z,0.90
2022-08-04T00:20:30.106Z,1.00
2022-08-04T00:22:57.371Z,0.88
2022-08-04T00:25:24.781Z,1.08
2022-08-04T00:27:52.125Z,1.00
2022-08-04T00:30:18.790Z,1.15
2022-08-04T00:32:45.558Z,1.00
2022-08-04T00:35:15.361Z,1.00
2022-08-04T00:37:43.948Z,0.90
2022-08-04T00:40:29.076Z,0.80
2022-08-04T00:43:07.754Z,1.08
2022-08-04T00:46:15.565Z,1.10
2022-08-04T00:48:46.010Z,1.00
2022-08-04T00:51:31.291Z,1.30
2022-08-04T00:54:08.195Z,0.90
2022-08-04T00:56:49.323Z,1.10
2022-08-04T00:59:34.616Z,0.90
2022-08-04T01:02:07.842Z,1.10
2022-08-04T01:04:34.348Z,1.23
2022-08-04T01:07:20.026Z,1.35
2022-08-04T01:09:49.695Z,0.98
2022-08-04T01:12:19.364Z,1.08
2022-08-04T01:15:06.486Z,1.10
2022-08-04T01:17:33.281Z,1.33
2022-08-04T01:20:03.045Z,1.45
2022-08-04T01:22:38.228Z,1.35
2022-08-04T01:25:06.738Z,1.08
2022-08-04T01:27:37.996Z,1.10
2022-08-04T01:30:07.581Z,0.95
2022-08-04T01:32:41.102Z,1.10
2022-08-04T01:35:10.753Z,1.00
2022-08-04T01:37:49.440Z,1.25
2022-08-04T01:40:16.514Z,1.20
2022-08-04T01:42:45.523Z,0.95
2022-08-04T01:45:13.365Z,1.30
2022-08-04T01:47:58.201Z,1.02
2022-08-04T01:50:28.080Z,1.48
2022-08-04T01:52:55.433Z,1.23
2022-08-04T01:55:22.135Z,0.98
2022-08-04T01:57:49.939Z,1.35
2022-08-04T02:00:21.245Z,1.23
2022-08-04T02:02:49.227Z,1.15
2022-08-04T02:05:17.146Z,1.20
2022-08-04T02:07:48.550Z,1.38
2022-08-04T02:10:15.147Z,0.93
2022-08-04T02:12:44.546Z,1.27
2022-08-04T02:15:17.589Z,1.30
2022-08-04T02:17:44.085Z,1.13
2022-08-04T02:20:40.246Z,1.50
2022-08-04T02:23:14.257Z,1.13
2022-08-04T02:25:43.875Z,1.20
2022-08-04T02:28:22.203Z,1.40
2022-08-04T02:30:52.083Z,1.50
2022-08-04T02:33:23.189Z,1.40
2022-08-04T02:35:53.993Z,1.33
2022-08-04T02:38:46.627Z,1.17
2022-08-04T02:41:15.660Z,1.55
2022-08-04T02:43:51.410Z,1.33
2022-08-04T02:46:20.074Z,1.00
2022-08-04T02:48:47.235Z,1.10
2022-08-04T02:51:15.305Z,1.10
2022-08-04T02:53:42.563Z,1.10
2022-08-04T02:56:09.926Z,1.48
2022-08-04T02:58:37.276Z,1.35
2022-08-04T03:01:04.897Z,0.95
2022-08-04T03:03:37.203Z,1.40
2022-08-04T03:06:15.850Z,1.10
2022-08-04T03:08:48.353Z,1.88
2022-08-04T03:11:33.833Z,1.08
2022-08-04T03:14:15.685Z,1.30
2022-08-04T03:19:14.620Z,1.38
2022-08-04T03:21:44.519Z,1.20
2022-08-04T03:24:20.314Z,1.75
2022-08-04T03:26:56.021Z,1.10
2022-08-04T03:29:36.189Z,1.27
2022-08-04T03:32:18.540Z,1.10
2022-08-04T03:34:50.966Z,1.13
2022-08-04T03:37:17.396Z,1.33
2022-08-04T03:40:02.704Z,1.33
2022-08-04T03:42:41.163Z,1.35
2022-08-04T03:45:23.729Z,1.20
2022-08-04T03:47:56.884Z,1.50
2022-08-04T03:50:29.717Z,1.13
2022-08-04T03:53:14.954Z,1.20
2022-08-04T03:55:57.856Z,1.30
2022-08-04T03:58:49.770Z,1.58
2022-08-04T04:02:02.271Z,1.50
2022-08-04T04:04:34.822Z,1.52
2022-08-04T04:07:07.409Z,1.30
2022-08-04T04:09:54.799Z,1.65
2022-08-04T04:12:39.447Z,1.42
2022-08-04T04:15:19.678Z,1.40
2022-08-04T04:18:04.994Z,1.60
2022-08-04T04:20:49.453Z,1.50
2022-08-04T04:23:26.203Z,1.40
2022-08-04T04:26:06.543Z,1.58
2022-08-04T04:28:44.184Z,1.15
2022-08-04T04:31:26.746Z,1.27
2022-08-04T04:34:01.907Z,1.48
2022-08-04T04:36:46.990Z,1.67
2022-08-04T04:39:16.540Z,1.50
2022-08-04T04:42:08.362Z,1.45
2022-08-04T04:44:34.803Z,1.45
2022-08-04T04:47:07.883Z,1.13
2022-08-04T04:49:53.184Z,1.60
2022-08-04T04:52:34.655Z,1.55
2022-08-04T04:55:21.510Z,1.23
2022-08-04T04:57:53.951Z,1.73
2022-08-04T05:00:23.409Z,1.60
2022-08-04T05:03:04.896Z,1.48
2022-08-04T05:05:41.211Z,1.90
2022-08-04T05:08:45.396Z,1.60
2022-08-04T05:10:57.113Z,1.55
2022-08-04T05:14:36.506Z,1.83
2022-08-04T05:16:25.871Z,1.75
2022-08-04T05:19:09.186Z,1.65
2022-08-04T05:21:44.121Z,1.77
2022-08-04T05:24:12.200Z,1.98
2022-08-04T05:26:44.172Z,1.70
2022-08-04T05:29:13.160Z,1.52
2022-08-04T05:31:44.852Z,1.75
2022-08-04T05:36:42.975Z,1.95
2022-08-04T05:39:28.886Z,1.85
2022-08-04T05:41:58.589Z,1.90
2022-08-04T05:44:32.461Z,1.63
2022-08-04T05:46:59.808Z,1.92
2022-08-04T05:49:27.667Z,2.00
2022-08-04T05:51:55.991Z,1.75
2022-08-04T05:54:23.359Z,1.83
2022-08-04T05:56:51.195Z,2.33
2022-08-04T05:59:18.751Z,2.55
2022-08-04T06:01:55.418Z,1.67
2022-08-04T06:04:25.159Z,1.90
2022-08-04T06:06:52.315Z,1.98
2022-08-04T06:09:18.902Z,1.77
2022-08-04T06:12:03.386Z,1.85
2022-08-04T06:14:50.584Z,2.25
2022-08-04T06:19:56.902Z,1.80
2022-08-04T06:20:18.886Z,2.00
2022-08-04T06:22:50.749Z,1.90
2022-08-04T06:25:20.641Z,2.15
2022-08-04T06:27:48.027Z,1.92
2022-08-04T06:30:15.703Z,1.80
2022-08-04T06:32:49.800Z,2.10
2022-08-04T06:35:17.988Z,1.83
2022-08-04T06:37:46.893Z,2.10
2022-08-04T06:40:31.481Z,1.65
2022-08-04T06:42:59.507Z,1.98
2022-08-04T06:45:27.434Z,1.77
2022-08-04T06:47:54.716Z,1.88
2022-08-04T06:51:27.120Z,2.47
2022-08-04T06:53:08.024Z,2.30
2022-08-04T06:55:34.562Z,2.00
2022-08-04T06:58:03.326Z,1.75
2022-08-04T07:00:30.987Z,2.13
2022-08-04T07:02:58.022Z,2.60
2022-08-04T07:05:24.635Z,3.22
2022-08-04T07:07:57.968Z,2.40
2022-08-04T07:10:28.749Z,3.20
2022-08-04T07:12:56.172Z,2.85
2022-08-04T07:15:23.356Z,2.30
2022-08-04T07:17:52.195Z,2.38
2022-08-04T07:20:34.781Z,3.00
2022-08-04T07:23:02.599Z,3.30
2022-08-04T07:26:00.732Z,2.60
2022-08-04T07:28:15.704Z,3.40
2022-08-04T07:30:43.860Z,3.53
2022-08-04T07:33:10.780Z,2.70
2022-08-04T07:36:09.080Z,2.92
2022-08-04T07:38:27.596Z,3.00
2022-08-04T07:40:54.940Z,2.97
2022-08-04T07:43:21.661Z,2.60
2022-08-04T07:45:48.344Z,3.00
2022-08-04T07:48:15.648Z,3.00
2022-08-04T07:50:45.386Z,2.50
2022-08-04T07:53:54.029Z,2.55
2022-08-04T07:56:00.227Z,2.70
2022-08-04T07:58:30.148Z,2.97
2022-08-04T08:00:57.269Z,3.00
2022-08-04T08:03:23.936Z,2.78
2022-08-04T08:06:17.962Z,3.15
2022-08-04T08:08:39.550Z,2.90
2022-08-04T08:11:06.785Z,2.80
2022-08-04T08:13:33.921Z,2.28
2022-08-04T08:16:01.216Z,2.60
2022-08-04T08:18:27.660Z,2.88
2022-08-04T08:20:55.474Z,2.58
2022-08-04T08:23:22.249Z,2.70
2022-08-04T08:25:49.379Z,2.90
2022-08-04T08:28:16.751Z,3.10
2022-08-04T08:30:43.541Z,2.80
2022-08-04T08:33:12.538Z,2.58
2022-08-04T08:36:02.314Z,2.38
2022-08-04T08:38:40.861Z,2.80
2022-08-04T08:41:25.802Z,2.90
2022-08-04T08:44:30.212Z,2.45
2022-08-04T08:47:22.887Z,2.60
2022-08-04T08:50:03.061Z,3.10
2022-08-04T08:53:00.892Z,2.88
2022-08-04T08:55:32.896Z,2.78
2022-08-04T08:58:08.156Z,2.78
2022-08-04T09:00:53.427Z,2.67
2022-08-04T09:03:40.151Z,2.38
2022-08-04T09:06:24.623Z,2.70
2022-08-04T09:08:59.636Z,2.35
2022-08-04T09:11:28.344Z,2.50
2022-08-04T09:13:56.956Z,2.65
2022-08-04T09:16:29.592Z,2.22
2022-08-04T09:19:38.164Z,2.78
2022-08-04T09:22:03.689Z,2.30
2022-08-04T09:24:41.853Z,2.47
2022-08-04T09:27:24.566Z,2.40
2022-08-04T09:30:02.240Z,2.80
2022-08-04T09:32:38.790Z,2.40
2022-08-04T09:35:28.918Z,2.40
2022-08-04T09:38:01.907Z,2.70
2022-08-04T09:40:55.394Z,2.85
2022-08-04T09:43:59.218Z,2.20
2022-08-04T09:46:46.001Z,2.40
2022-08-04T09:49:27.845Z,2.80
2022-08-04T09:54:48.038Z,2.63
2022-08-04T09:57:14.546Z,2.40
2022-08-04T09:59:50.086Z,2.60
2022-08-04T10:02:19.186Z,2.15
2022-08-04T10:04:46.986Z,2.20
2022-08-04T10:07:30.115Z,3.08
2022-08-04T10:10:15.394Z,2.78
2022-08-04T10:12:49.063Z,2.40
2022-08-04T10:15:34.200Z,2.75
2022-08-04T10:18:21.586Z,2.55
2022-08-04T10:21:15.814Z,2.70
2022-08-04T10:23:56.592Z,2.15
2022-08-04T10:26:30.911Z,2.30
2022-08-04T10:29:05.733Z,2.30
2022-08-04T10:31:39.546Z,2.20
2022-08-04T10:34:05.960Z,2.88
2022-08-04T10:36:39.846Z,2.50
2022-08-04T10:39:12.014Z,2.30
2022-08-04T10:41:44.546Z,2.40
2022-08-04T10:44:23.596Z,2.22
2022-08-04T10:46:53.121Z,2.30
2022-08-04T10:49:24.306Z,2.30
2022-08-04T10:51:57.217Z,2.10
2022-08-04T10:54:34.393Z,2.20
2022-08-04T10:57:07.278Z,2.17
2022-08-04T10:59:45.909Z,2.53
2022-08-04T11:02:19.811Z,1.98
2022-08-04T11:04:53.795Z,2.20
2022-08-04T11:07:20.856Z,2.30
2022-08-04T11:09:48.137Z,2.25
2022-08-04T11:12:17.746Z,2.10
2022-08-04T11:14:50.826Z,2.10
2022-08-04T11:17:28.196Z,2.05
2022-08-04T11:20:34.138Z,2.03
2022-08-04T11:23:05.358Z,2.10
2022-08-04T11:25:47.227Z,2.10
2022-08-04T11:28:30.591Z,2.00
2022-08-04T11:31:17.541Z,2.13
2022-08-04T11:33:47.001Z,1.80
2022-08-04T11:36:19.371Z,1.90
2022-08-04T11:38:53.424Z,1.92
2022-08-04T11:41:22.189Z,1.92
2022-08-04T11:44:01.110Z,2.20
2022-08-04T11:46:30.468Z,2.00
2022-08-04T11:49:17.144Z,1.80
2022-08-04T11:51:44.826Z,1.60
2022-08-04T11:54:12.031Z,2.20
2022-08-04T11:56:38.613Z,2.08
2022-08-04T11:59:07.635Z,2.00
2022-08-04T12:02:11.300Z,2.15
2022-08-04T12:04:56.665Z,1.88
2022-08-04T12:07:30.986Z,1.98
2022-08-04T12:10:03.909Z,1.80
2022-08-04T12:12:43.810Z,1.85
2022-08-04T12:15:30.379Z,2.03
2022-08-04T12:18:16.008Z,2.00
2022-08-04T12:20:46.965Z,1.75
2022-08-04T12:23:18.859Z,2.00
2022-08-04T12:25:52.172Z,1.67
2022-08-04T12:28:24.842Z,1.90
2022-08-04T12:31:17.445Z,2.45
2022-08-04T12:34:10.085Z,1.95
2022-08-04T12:36:57.738Z,2.00
2022-08-04T12:39:25.749Z,1.67
2022-08-04T12:41:55.713Z,1.83
2022-08-04T12:44:37.095Z,1.83
2022-08-04T12:47:36.739Z,1.67
2022-08-04T12:49:56.196Z,1.70
2022-08-04T12:52:45.380Z,1.83
2022-08-04T12:55:15.091Z,1.70
2022-08-04T12:57:42.634Z,1.80
2022-08-04T13:00:09.901Z,1.85
2022-08-04T13:02:38.629Z,2.08
2022-08-04T13:05:07.842Z,1.92
2022-08-04T13:07:38.862Z,2.03
2022-08-04T13:10:12.052Z,1.70
2022-08-04T13:12:39.540Z,1.70
2022-08-04T13:15:11.486Z,1.98
2022-08-04T13:17:53.961Z,1.77
2022-08-04T13:20:25.073Z,1.50
2022-08-04T13:22:58.809Z,1.75
2022-08-04T13:26:43.882Z,1.90
2022-08-04T13:28:20.794Z,1.80
2022-08-04T13:30:48.520Z,1.77
2022-08-04T13:33:16.107Z,1.95
2022-08-04T13:35:55.733Z,1.73
2022-08-04T13:38:24.153Z,1.65
2022-08-04T13:40:50.996Z,1.60
2022-08-04T13:44:15.385Z,1.80
2022-08-04T13:46:32.389Z,1.70
2022-08-04T13:52:00.737Z,1.58
2022-08-04T13:54:35.114Z,1.75
2022-08-04T13:59:37.490Z,1.70
2022-08-04T14:02:06.218Z,1.60
2022-08-04T14:04:36.476Z,1.73
2022-08-04T14:07:18.230Z,1.60
2022-08-04T14:10:02.655Z,1.40
2022-08-04T14:12:46.506Z,1.50
2022-08-04T14:16:02.828Z,1.50
2022-08-04T14:18:22.802Z,1.55
2022-08-04T14:20:59.638Z,1.58
2022-08-04T14:23:31.716Z,1.63
2022-08-04T14:25:59.707Z,1.70
2022-08-04T14:29:08.575Z,1.70
2022-08-04T14:31:21.320Z,1.55
2022-08-04T14:34:02.474Z,1.50
2022-08-04T14:37:13.898Z,1.20
2022-08-04T14:40:17.655Z,1.40
2022-08-04T14:42:53.826Z,1.63
2022-08-04T14:45:27.910Z,1.50
2022-08-04T14:47:54.836Z,1.60
2022-08-04T14:50:32.776Z,1.60
2022-08-04T14:53:02.900Z,1.30
2022-08-04T14:55:29.392Z,1.35
2022-08-04T14:58:35.854Z,1.77
2022-08-04T15:00:42.385Z,1.85
2022-08-04T15:03:09.286Z,1.50
2022-08-04T15:06:01.879Z,1.67
2022-08-04T15:08:31.173Z,1.70
2022-08-04T15:10:58.994Z,1.63
2022-08-04T15:13:29.250Z,1.60
2022-08-04T15:16:07.539Z,1.60
2022-08-04T15:18:38.841Z,1.60
2022-08-04T15:21:05.958Z,1.45
2022-08-04T15:23:38.694Z,1.58
2022-08-04T15:26:07.649Z,1.73
2022-08-04T15:28:35.943Z,1.60
2022-08-04T15:31:03.788Z,1.40
2022-08-04T15:33:33.826Z,1.55
2022-08-04T15:36:12.950Z,1.45
2022-08-04T15:38:44.375Z,1.35
2022-08-04T15:43:47.143Z,1.48
2022-08-04T15:46:42.318Z,1.63
2022-08-04T15:49:20.906Z,1.50
2022-08-04T15:51:47.751Z,1.50
2022-08-04T15:54:27.457Z,1.50
2022-08-04T15:57:02.179Z,1.92
2022-08-04T15:59:48.265Z,1.58
2022-08-04T16:02:30.002Z,1.70
2022-08-04T16:05:17.906Z,1.73
2022-08-04T16:08:04.761Z,1.42
2022-08-04T16:10:31.231Z,1.52
2022-08-04T16:12:59.311Z,1.55
2022-08-04T16:15:42.461Z,1.60
2022-08-04T16:18:25.756Z,1.60
2022-08-04T16:20:57.592Z,1.50
2022-08-04T16:23:54.245Z,1.80
2022-08-04T16:26:37.982Z,1.60
2022-08-04T16:29:24.907Z,1.50
2022-08-04T16:32:13.267Z,1.70
2022-08-04T16:34:55.531Z,1.70
2022-08-04T16:37:30.529Z,1.33
2022-08-04T16:40:15.752Z,1.60
2022-08-04T16:42:42.462Z,1.67
2022-08-04T16:45:09.207Z,1.60
2022-08-04T16:47:48.011Z,1.83
2022-08-04T16:50:15.060Z,1.70
2022-08-04T16:52:42.918Z,1.70
2022-08-04T16:55:09.461Z,1.80
2022-08-04T16:57:38.779Z,1.80
2022-08-04T17:00:05.890Z,1.60
2022-08-04T17:02:32.466Z,1.60
2022-08-04T17:05:07.022Z,1.70
2022-08-04T17:07:58.295Z,1.60
2022-08-04T17:14:02.674Z,1.70
2022-08-04T17:16:37.070Z,1.92
2022-08-04T17:19:04.180Z,1.88
2022-08-04T17:21:32.657Z,1.80
2022-08-04T17:24:15.933Z,1.65
2022-08-04T17:26:51.589Z,1.77
2022-08-04T17:29:21.635Z,1.80
2022-08-04T17:31:48.267Z,1.95
2022-08-04T17:34:16.805Z,1.90
2022-08-04T17:39:38.127Z,1.80
2022-08-04T17:42:19.899Z,1.88
2022-08-04T17:44:51.458Z,1.63
2022-08-04T17:47:27.870Z,1.70
2022-08-04T17:50:15.436Z,1.83
2022-08-04T17:53:01.083Z,1.90
2022-08-04T17:55:47.181Z,1.70
2022-08-04T17:58:21.206Z,1.95
2022-08-04T18:00:51.311Z,1.85
2022-08-04T18:03:29.969Z,1.83
2022-08-04T18:08:50.121Z,1.75
2022-08-04T18:11:22.201Z,1.92
2022-08-04T18:13:54.450Z,1.90
2022-08-04T18:16:23.773Z,1.70
2022-08-04T18:19:13.711Z,1.80
2022-08-04T18:21:45.628Z,1.80
2022-08-04T18:24:13.953Z,1.77
2022-08-04T18:26:41.213Z,1.80
2022-08-04T18:29:07.973Z,1.80
2022-08-04T18:31:54.986Z,2.03
2022-08-04T18:34:24.297Z,1.58
2022-08-04T18:36:55.526Z,1.90
2022-08-04T18:40:17.159Z,1.73
2022-08-04T18:42:12.552Z,1.80
2022-08-04T18:44:52.168Z,1.60
2022-08-04T18:47:23.049Z,1.85
2022-08-04T18:50:59.842Z,1.60
2022-08-04T18:52:45.386Z,1.73
2022-08-04T18:55:12.696Z,1.80
2022-08-04T18:58:01.469Z,1.60
2022-08-04T19:00:28.252Z,1.48
2022-08-04T19:02:54.970Z,1.67
2022-08-04T19:05:23.788Z,1.60
2022-08-04T19:08:11.359Z,1.43
2022-08-04T19:10:59.425Z,1.60
2022-08-04T19:13:27.137Z,1.65
2022-08-04T19:15:53.758Z,1.50
2022-08-04T19:18:20.283Z,1.77
2022-08-04T19:20:49.724Z,1.60
2022-08-04T19:26:05.668Z,1.50
2022-08-04T19:28:37.041Z,1.70
2022-08-04T19:31:07.913Z,1.50
2022-08-04T19:33:59.072Z,1.52
2022-08-04T19:36:28.511Z,1.52
2022-08-04T19:39:00.748Z,1.40
2022-08-04T19:41:29.534Z,1.60
2022-08-04T19:43:57.700Z,1.60
2022-08-04T19:46:25.703Z,1.40
2022-08-04T19:51:39.702Z,1.42
2022-08-04T19:54:23.578Z,1.50
2022-08-04T19:56:53.742Z,1.13
2022-08-04T19:59:21.982Z,1.25
2022-08-04T20:01:49.790Z,1.33
2022-08-04T20:04:16.339Z,1.20
2022-08-04T20:06:42.946Z,1.23
2022-08-04T20:09:24.599Z,1.25
2022-08-04T20:11:53.917Z,1.40
2022-08-04T20:14:22.840Z,1.10
2022-08-04T20:16:58.891Z,1.35
2022-08-04T20:19:25.803Z,1.60
2022-08-04T20:21:56.399Z,1.30
2022-08-04T20:24:38.055Z,1.50
2022-08-04T20:27:09.024Z,1.58
2022-08-04T20:29:43.316Z,1.40
2022-08-04T20:32:12.817Z,1.50
2022-08-04T20:34:41.858Z,1.60
2022-08-04T20:39:55.469Z,1.60
2022-08-04T20:42:27.197Z,1.35
2022-08-04T20:44:55.014Z,1.40
2022-08-04T20:47:22.005Z,1.42
2022-08-04T20:49:49.031Z,1.50
2022-08-04T20:52:20.276Z,1.42
2022-08-04T20:54:48.403Z,1.55
2022-08-04T20:57:16.472Z,1.45
2022-08-04T20:59:43.835Z,1.50
2022-08-04T21:02:20.855Z,1.75
2022-08-04T21:04:48.462Z,1.80
2022-08-04T21:10:01.869Z,1.70
2022-08-04T21:12:29.159Z,1.52
2022-08-04T21:15:01.509Z,1.70
2022-08-04T21:17:58.320Z,1.70
2022-08-04T21:20:27.639Z,1.80
2022-08-04T21:22:54.598Z,1.80
2022-08-04T21:25:22.307Z,1.58
2022-08-04T21:27:48.823Z,1.60
2022-08-04T21:30:24.058Z,1.73
2022-08-04T21:32:52.738Z,2.10
2022-08-04T21:35:19.597Z,1.88
2022-08-04T21:37:58.135Z,1.90
2022-08-04T21:40:36.845Z,1.70
2022-08-04T21:43:05.721Z,1.80
2022-08-04T21:45:36.489Z,1.60
2022-08-04T21:48:04.712Z,2.15
2022-08-04T21:50:31.279Z,1.95
2022-08-04T21:52:57.725Z,1.98
2022-08-04T21:55:25.731Z,1.88
2022-08-04T21:58:13.267Z,1.90
2022-08-04T22:00:40.268Z,1.90
2022-08-04T22:03:06.870Z,1.85
2022-08-04T22:05:49.886Z,1.77
2022-08-04T22:11:04.408Z,1.85
2022-08-04T22:13:52.453Z,1.77
2022-08-04T22:16:17.920Z,1.50
2022-08-04T22:18:50.027Z,1.65
2022-08-04T22:21:20.628Z,1.58
2022-08-04T22:23:50.526Z,1.83
2022-08-04T22:26:19.839Z,1.90
2022-08-04T22:28:47.175Z,1.80
2022-08-04T22:31:23.347Z,1.80
2022-08-04T22:33:56.128Z,1.88
2022-08-04T22:36:24.762Z,1.67
2022-08-04T22:38:57.049Z,1.90
2022-08-04T22:41:34.189Z,1.90
2022-08-04T22:44:16.190Z,1.70
2022-08-04T22:46:42.738Z,1.70
2022-08-04T22:49:09.457Z,1.60
2022-08-04T22:51:35.992Z,1.67
2022-08-04T22:54:02.463Z,1.75
2022-08-04T22:56:39.189Z,1.67
2022-08-04T22:59:06.389Z,1.70
2022-08-04T23:01:58.720Z,1.70
2022-08-04T23:04:23.236Z,1.63
2022-08-04T23:06:49.976Z,1.90
2022-08-04T23:09:17.059Z,1.50
2022-08-04T23:11:43.920Z,1.60
2022-08-04T23:14:10.660Z,1.88
2022-08-04T23:16:40.749Z,1.75
2022-08-04T23:21:40.663Z,1.48
2022-08-04T23:24:07.898Z,1.70
2022-08-04T23:26:36.099Z,1.50
2022-08-04T23:29:03.760Z,1.58
2022-08-04T23:31:41.137Z,1.90
2022-08-04T23:34:18.918Z,1.60
2022-08-04T23:36:45.418Z,1.60
2022-08-04T23:39:14.125Z,1.80
2022-08-04T23:41:54.269Z,1.75
2022-08-04T23:44:24.888Z,1.60
2022-08-04T23:47:02.428Z,1.42
2022-08-04T23:49:43.670Z,1.67
2022-08-04T23:52:23.313Z,1.60
2022-08-04T23:54:55.961Z,1.65
2022-08-04T23:57:22.531Z,2.08
2022-08-04T23:59:53.004Z,1.92
